Time;durP1;ratioP1;P1;durP2;ratioP2;P2;SDS_P1;SDS_P2;PMS_P1;PMS_P2;Temp;Humidity;BMP_temperature;BMP_pressure;BME280_temperature;BME280_humidity;BME280_pressure;Samples;Min_cycle;Max_cycle;Signal;HPM_P1;HPM_P2
2022/09/18 00:01:15;;;;;;;1.10;1.10;;;11.10;99.90;;;;;;5037511;28;20332;-84
2022/09/18 00:03:41;;;;;;;1.33;1.33;;;11.00;99.90;;;;;;5025262;28;20594;-84
2022/09/18 00:06:13;;;;;;;2.87;1.30;;;11.00;99.90;;;;;;5017083;28;20254;-86
2022/09/18 00:08:42;;;;;;;1.30;1.30;;;11.10;99.90;;;;;;5013959;28;20249;-86
2022/09/18 00:11:10;;;;;;;2.00;1.90;;;11.00;99.90;;;;;;5013142;28;20210;-84
2022/09/18 00:13:37;;;;;;;1.30;1.30;;;11.00;99.90;;;;;;5013637;28;20204;-87
2022/09/18 00:16:04;;;;;;;2.20;1.50;;;11.00;99.90;;;;;;5013587;28;20178;-85
2022/09/18 00:18:30;;;;;;;4.23;2.00;;;10.90;99.90;;;;;;5013211;28;20199;-84
2022/09/18 00:21:25;;;;;;;1.80;1.57;;;10.80;99.90;;;;;;5013068;28;20213;-86
2022/09/18 00:23:54;;;;;;;1.57;1.50;;;10.80;99.90;;;;;;5013323;28;20250;-85
2022/09/18 00:26:20;;;;;;;1.60;1.50;;;10.80;99.90;;;;;;5013072;28;20173;-85
2022/09/18 00:28:46;;;;;;;1.73;1.60;;;10.80;99.90;;;;;;5011628;28;20178;-86
2022/09/18 00:31:15;;;;;;;1.73;1.63;;;10.80;99.90;;;;;;5012936;28;20205;-87
2022/09/18 00:33:41;;;;;;;1.60;1.43;;;10.60;99.90;;;;;;5012979;28;20605;-86
2022/09/18 00:36:13;;;;;;;2.40;1.43;;;10.50;99.90;;;;;;5012858;28;20178;-86
2022/09/18 00:38:39;;;;;;;1.57;1.40;;;10.40;99.90;;;;;;5012966;28;20316;-86
2022/09/18 00:41:07;;;;;;;1.60;1.50;;;10.20;99.90;;;;;;5013181;28;20196;-87
2022/09/18 00:43:36;;;;;;;1.57;1.20;;;10.10;99.90;;;;;;5012151;28;20224;-88
2022/09/18 00:46:24;;;;;;;2.57;1.77;;;10.00;99.90;;;;;;5013450;28;20183;-86
2022/09/18 00:49:12;;;;;;;1.20;1.10;;;9.90;99.90;;;;;;5012794;28;20251;-85
2022/09/18 00:51:39;;;;;;;2.23;1.33;;;10.00;99.90;;;;;;5012596;28;20176;-86
2022/09/18 00:54:18;;;;;;;1.40;1.40;;;10.10;99.90;;;;;;5007143;28;20267;-88
2022/09/18 00:56:46;;;;;;;1.43;1.20;;;10.10;99.90;;;;;;5011418;28;20168;-87
2022/09/18 00:59:18;;;;;;;1.73;1.63;;;10.10;99.90;;;;;;5011316;28;20623;-84
2022/09/18 01:01:44;;;;;;;1.33;1.30;;;10.20;99.90;;;;;;5011058;28;20212;-84
2022/09/18 01:04:12;;;;;;;1.53;1.40;;;10.10;99.90;;;;;;5011402;28;20184;-85
2022/09/18 01:06:45;;;;;;;2.53;1.50;;;10.10;99.90;;;;;;5015372;28;20224;-84
2022/09/18 01:09:35;;;;;;;2.33;1.60;;;10.00;99.90;;;;;;5011165;28;20181;-84
2022/09/18 01:12:10;;;;;;;1.40;1.30;;;9.90;99.90;;;;;;5013457;28;20256;-84
2022/09/18 01:15:13;;;;;;;1.83;1.73;;;9.90;99.90;;;;;;5014644;28;20678;-84
2022/09/18 01:17:46;;;;;;;3.93;1.40;;;9.90;99.90;;;;;;5011072;28;20948;-84
2022/09/18 01:20:39;;;;;;;1.83;1.50;;;9.80;99.90;;;;;;5011186;28;20212;-83
2022/09/18 01:23:20;;;;;;;1.43;1.33;;;9.80;99.90;;;;;;5011841;28;20166;-87
2022/09/18 01:25:49;;;;;;;1.80;1.70;;;9.90;99.90;;;;;;5011404;28;20298;-86
2022/09/18 01:28:32;;;;;;;1.60;1.50;;;9.90;99.90;;;;;;5011618;28;20183;-84
2022/09/18 01:31:05;;;;;;;1.40;1.40;;;9.80;99.90;;;;;;5010928;28;20187;-86
2022/09/18 01:33:41;;;;;;;1.50;1.50;;;9.80;99.90;;;;;;5011756;28;20531;-87
2022/09/18 01:36:12;;;;;;;2.10;1.40;;;9.70;99.90;;;;;;5020319;28;20168;-86
2022/09/18 01:38:43;;;;;;;2.67;1.60;;;9.60;99.90;;;;;;5030998;28;20727;-84
2022/09/18 01:41:25;;;;;;;1.57;1.47;;;9.60;99.90;;;;;;5019992;28;20200;-84
2022/09/18 01:44:02;;;;;;;1.60;1.50;;;9.60;99.90;;;;;;5014138;28;20199;-84
2022/09/18 01:46:29;;;;;;;1.77;1.47;;;9.60;99.90;;;;;;5010720;28;20162;-86
2022/09/18 01:49:09;;;;;;;1.50;1.10;;;9.60;99.90;;;;;;5009926;28;20184;-86
2022/09/18 01:51:48;;;;;;;1.40;1.30;;;9.70;99.90;;;;;;5010444;28;20188;-84
2022/09/18 01:54:19;;;;;;;3.80;1.60;;;9.70;99.90;;;;;;5010291;28;20714;-87
2022/09/18 01:56:56;;;;;;;2.63;1.90;;;9.80;99.90;;;;;;5010187;28;20158;-86
2022/09/18 01:59:28;;;;;;;2.07;1.87;;;9.60;99.90;;;;;;5010482;28;20174;-84
2022/09/18 02:01:58;;;;;;;1.77;1.67;;;9.50;99.90;;;;;;5010213;28;20216;-84
2022/09/18 02:04:29;;;;;;;1.40;1.40;;;9.50;99.90;;;;;;5008837;28;20185;-85
2022/09/18 02:07:13;;;;;;;1.70;1.60;;;9.50;99.90;;;;;;5009989;28;20190;-84
2022/09/18 02:09:39;;;;;;;1.40;1.30;;;9.40;99.90;;;;;;5010416;28;20168;-84
2022/09/18 02:12:10;;;;;;;2.63;1.33;;;9.40;99.90;;;;;;5010579;28;20186;-85
2022/09/18 02:14:45;;;;;;;2.23;1.50;;;9.40;99.90;;;;;;5010515;28;20214;-87
2022/09/18 02:17:43;;;;;;;1.77;1.67;;;9.40;99.90;;;;;;5008618;28;20178;-84
2022/09/18 02:20:14;;;;;;;2.53;1.60;;;9.30;99.90;;;;;;5017670;28;20216;-86
2022/09/18 02:22:43;;;;;;;1.43;1.37;;;9.30;99.90;;;;;;5010311;28;20194;-85
2022/09/18 02:25:13;;;;;;;3.83;1.50;;;9.20;99.90;;;;;;5008824;28;20179;-87
2022/09/18 02:27:42;;;;;;;1.90;1.40;;;9.20;99.90;;;;;;5009755;28;20570;-86
2022/09/18 02:30:09;;;;;;;3.70;1.50;;;9.20;99.90;;;;;;5010156;28;20716;-85
2022/09/18 02:32:36;;;;;;;1.67;1.57;;;9.10;99.90;;;;;;5010492;28;20655;-87
2022/09/18 02:35:03;;;;;;;1.50;1.40;;;8.90;99.90;;;;;;5014133;28;20176;-87
2022/09/18 02:38:00;;;;;;;1.43;1.30;;;8.90;99.90;;;;;;5013617;28;20257;-86
2022/09/18 02:40:55;;;;;;;1.60;1.37;;;8.90;99.90;;;;;;5012346;28;20237;-85
2022/09/18 02:43:30;;;;;;;1.60;1.17;;;9.00;99.90;;;;;;5014111;28;20513;-85
2022/09/18 02:46:08;;;;;;;1.43;1.33;;;9.00;99.90;;;;;;5014165;28;20644;-85
2022/09/18 02:48:49;;;;;;;2.43;1.10;;;9.00;99.90;;;;;;5012214;28;20175;-83
2022/09/18 02:51:19;;;;;;;1.50;1.40;;;9.10;99.90;;;;;;5013734;28;20513;-84
2022/09/18 02:53:55;;;;;;;1.30;1.30;;;9.00;99.90;;;;;;5016651;28;20178;-84
2022/09/18 02:56:48;;;;;;;1.60;1.47;;;9.10;99.90;;;;;;5017509;28;20163;-84
2022/09/18 02:59:30;;;;;;;1.83;1.77;;;9.10;99.90;;;;;;5014841;28;20572;-85
2022/09/18 03:01:57;;;;;;;2.23;1.60;;;9.00;99.90;;;;;;5025160;28;20202;-87
2022/09/18 03:04:25;;;;;;;2.20;1.33;;;9.00;99.90;;;;;;5019177;28;20650;-88
2022/09/18 03:06:52;;;;;;;2.17;1.50;;;9.00;99.90;;;;;;5016036;28;20181;-85
2022/09/18 03:09:18;;;;;;;1.90;1.60;;;9.00;99.90;;;;;;5013314;28;20650;-86
2022/09/18 03:11:44;;;;;;;4.10;1.40;;;9.00;99.90;;;;;;5012994;28;20184;-86
2022/09/18 03:14:10;;;;;;;1.40;1.23;;;9.10;99.90;;;;;;5014933;28;20187;-85
2022/09/18 03:16:36;;;;;;;1.40;1.30;;;9.10;99.90;;;;;;5022463;28;20178;-83
2022/09/18 03:19:02;;;;;;;1.40;1.40;;;8.90;99.90;;;;;;5030575;28;20475;-83
2022/09/18 03:21:28;;;;;;;1.40;1.40;;;8.90;99.90;;;;;;5021169;28;20212;-88
2022/09/18 03:23:54;;;;;;;4.07;1.47;;;8.90;99.90;;;;;;5016538;28;20224;-87
2022/09/18 03:26:20;;;;;;;2.40;1.50;;;8.90;99.90;;;;;;5014199;28;20535;-86
2022/09/18 03:28:46;;;;;;;2.60;1.50;;;9.00;99.90;;;;;;5010769;28;20707;-85
2022/09/18 03:31:12;;;;;;;4.23;1.87;;;9.00;99.90;;;;;;5012119;28;20207;-86
2022/09/18 03:33:38;;;;;;;4.67;1.70;;;9.00;99.90;;;;;;5013095;28;20216;-87
2022/09/18 03:36:05;;;;;;;4.47;1.40;;;8.80;99.90;;;;;;5012864;28;20189;-86
2022/09/18 03:38:32;;;;;;;1.43;1.33;;;8.70;99.90;;;;;;5013144;28;20231;-85
2022/09/18 03:40:58;;;;;;;1.93;1.33;;;8.70;99.90;;;;;;5012936;28;20206;-87
2022/09/18 03:43:25;;;;;;;2.30;1.40;;;8.70;99.90;;;;;;5012773;28;20573;-85
2022/09/18 03:45:51;;;;;;;2.03;1.30;;;8.70;99.90;;;;;;5011792;28;20177;-84
2022/09/18 03:48:18;;;;;;;3.23;1.70;;;8.70;99.90;;;;;;5012767;28;20595;-85
2022/09/18 03:50:46;;;;;;;2.20;1.60;;;8.70;99.90;;;;;;5012783;28;20201;-88
2022/09/18 03:53:12;;;;;;;1.97;1.60;;;8.50;99.90;;;;;;5012569;28;20608;-86
2022/09/18 03:55:38;;;;;;;3.80;1.90;;;8.60;99.90;;;;;;5013156;28;20624;-86
2022/09/18 03:58:03;;;;;;;2.53;1.40;;;8.50;99.90;;;;;;5012552;28;20633;-86
2022/09/18 04:00:29;;;;;;;1.93;1.30;;;8.30;99.90;;;;;;5012549;28;20205;-86
2022/09/18 04:02:55;;;;;;;1.50;1.40;;;8.30;99.90;;;;;;5012450;28;20179;-85
2022/09/18 04:05:21;;;;;;;2.27;1.37;;;8.50;99.90;;;;;;5012465;28;20501;-85
2022/09/18 04:07:47;;;;;;;4.00;1.27;;;8.50;99.90;;;;;;5012374;28;20176;-86
2022/09/18 04:10:13;;;;;;;3.23;1.77;;;8.60;99.90;;;;;;5012447;28;20191;-84
2022/09/18 04:12:39;;;;;;;1.40;1.30;;;8.60;99.90;;;;;;5012275;28;20258;-85
2022/09/18 04:15:05;;;;;;;1.40;1.40;;;8.80;99.90;;;;;;5012224;28;20245;-87
2022/09/18 04:17:31;;;;;;;1.40;1.30;;;8.90;99.90;;;;;;5012192;28;20210;-85
2022/09/18 04:19:57;;;;;;;1.73;1.50;;;8.90;99.90;;;;;;5011920;28;20183;-85
2022/09/18 04:22:23;;;;;;;1.50;1.40;;;8.90;99.90;;;;;;5012331;28;20581;-84
2022/09/18 04:24:49;;;;;;;1.40;1.30;;;8.80;99.90;;;;;;5012085;28;20171;-86
2022/09/18 04:27:15;;;;;;;1.90;1.30;;;9.00;99.90;;;;;;5012006;28;20673;-86
2022/09/18 04:29:41;;;;;;;1.70;1.60;;;9.00;99.90;;;;;;5011943;28;20176;-86
2022/09/18 04:32:07;;;;;;;1.90;1.17;;;9.00;99.90;;;;;;5011924;28;20176;-85
2022/09/18 04:34:33;;;;;;;1.57;1.30;;;9.00;99.90;;;;;;5011875;28;20325;-86
2022/09/18 04:36:59;;;;;;;1.50;1.50;;;9.00;99.90;;;;;;5010448;28;20266;-86
2022/09/18 04:39:24;;;;;;;1.47;1.37;;;9.00;99.90;;;;;;5011753;28;20717;-85
2022/09/18 04:41:50;;;;;;;3.00;1.37;;;9.00;99.90;;;;;;5012170;28;20578;-84
2022/09/18 04:44:16;;;;;;;1.67;1.50;;;9.10;99.90;;;;;;5013638;28;20267;-84
2022/09/18 04:46:42;;;;;;;1.40;1.40;;;9.10;99.90;;;;;;5011332;28;20294;-85
2022/09/18 04:49:08;;;;;;;2.17;1.43;;;9.10;99.90;;;;;;5013037;28;20172;-85
2022/09/18 04:51:34;;;;;;;1.37;1.37;;;9.10;99.90;;;;;;5012688;28;20538;-84
2022/09/18 04:53:59;;;;;;;2.00;1.30;;;9.20;99.90;;;;;;5028743;28;20154;-84
2022/09/18 04:56:26;;;;;;;1.70;1.60;;;9.20;99.90;;;;;;5032765;28;20190;-85
2022/09/18 04:58:52;;;;;;;1.30;1.30;;;9.20;99.90;;;;;;5017847;28;20278;-86
2022/09/18 05:01:18;;;;;;;3.00;1.30;;;9.20;99.90;;;;;;5012135;28;20244;-88
2022/09/18 05:03:44;;;;;;;1.77;1.50;;;9.20;99.90;;;;;;5012054;28;20181;-87
2022/09/18 05:06:10;;;;;;;1.30;1.30;;;9.20;99.90;;;;;;5012554;28;20181;-87
2022/09/18 05:08:37;;;;;;;1.30;1.30;;;9.20;99.90;;;;;;5010983;28;20253;-86
2022/09/18 05:11:03;;;;;;;2.47;1.47;;;9.20;99.90;;;;;;5011173;28;20177;-87
2022/09/18 05:13:29;;;;;;;3.13;1.30;;;9.20;99.90;;;;;;5011122;28;20175;-88
2022/09/18 05:15:56;;;;;;;2.20;1.43;;;9.30;99.90;;;;;;5010837;28;20195;-87
2022/09/18 05:18:22;;;;;;;3.60;1.67;;;9.20;99.90;;;;;;5011333;28;20176;-88
2022/09/18 05:20:48;;;;;;;1.30;1.30;;;9.30;99.90;;;;;;5012749;28;20211;-86
2022/09/18 05:23:14;;;;;;;1.67;1.57;;;9.40;99.90;;;;;;5014482;28;20173;-85
2022/09/18 05:25:41;;;;;;;1.70;1.60;;;9.50;99.90;;;;;;5011611;28;20181;-87
2022/09/18 05:28:08;;;;;;;3.13;1.50;;;9.50;99.90;;;;;;5010891;28;20205;-85
2022/09/18 05:30:34;;;;;;;1.53;1.43;;;9.60;99.90;;;;;;5010744;28;20306;-87
2022/09/18 05:33:06;;;;;;;1.77;1.67;;;9.70;99.90;;;;;;5010728;28;20699;-85
2022/09/18 05:35:34;;;;;;;1.73;1.63;;;9.80;99.90;;;;;;5009409;28;20288;-85
2022/09/18 05:38:00;;;;;;;1.70;1.60;;;9.80;99.90;;;;;;5010888;28;20169;-85
2022/09/18 05:40:31;;;;;;;1.87;1.70;;;9.80;99.90;;;;;;5010167;28;20319;-86
2022/09/18 05:42:57;;;;;;;4.50;1.63;;;9.80;99.90;;;;;;5010480;28;20205;-86
2022/09/18 05:45:24;;;;;;;1.80;1.70;;;9.80;99.90;;;;;;5010636;28;20238;-86
2022/09/18 05:47:58;;;;;;;1.90;1.70;;;9.90;99.90;;;;;;5010600;28;20168;-86
2022/09/18 05:50:25;;;;;;;3.07;1.80;;;9.90;99.90;;;;;;5010825;28;20168;-87
2022/09/18 05:52:57;;;;;;;2.03;1.50;;;9.90;99.90;;;;;;5012008;28;20169;-86
2022/09/18 05:55:23;;;;;;;1.83;1.83;;;10.00;99.90;;;;;;5009306;28;20584;-86
2022/09/18 05:57:52;;;;;;;2.10;2.00;;;10.10;99.90;;;;;;5010594;28;20592;-87
2022/09/18 06:00:19;;;;;;;2.10;2.00;;;10.10;99.90;;;;;;5010495;28;20201;-87
2022/09/18 06:02:52;;;;;;;1.80;1.80;;;10.20;99.90;;;;;;5009167;28;20187;-87
2022/09/18 06:05:18;;;;;;;2.00;1.90;;;10.20;99.90;;;;;;5010588;28;20641;-87
2022/09/18 06:07:44;;;;;;;6.53;2.30;;;10.20;99.90;;;;;;5009741;28;20207;-86
2022/09/18 06:10:09;;;;;;;2.23;2.13;;;10.30;99.90;;;;;;5011015;28;20260;-85
2022/09/18 06:12:35;;;;;;;3.03;1.90;;;10.30;99.90;;;;;;5010539;28;20207;-84
2022/09/18 06:15:01;;;;;;;1.83;1.73;;;10.40;99.90;;;;;;5010733;28;20538;-84
2022/09/18 06:17:27;;;;;;;2.83;2.10;;;10.40;99.90;;;;;;5010255;28;20196;-84
2022/09/18 06:19:53;;;;;;;4.83;1.90;;;10.50;99.90;;;;;;5011074;28;20269;-84
2022/09/18 06:22:18;;;;;;;1.83;1.73;;;10.60;99.90;;;;;;5011733;28;20184;-87
2022/09/18 06:24:44;;;;;;;1.77;1.67;;;10.60;99.90;;;;;;5011107;28;20176;-84
2022/09/18 06:27:10;;;;;;;2.07;1.90;;;10.60;99.90;;;;;;5010295;28;20211;-85
2022/09/18 06:29:39;;;;;;;1.87;1.77;;;10.60;99.90;;;;;;5024382;28;20161;-83
2022/09/18 06:32:05;;;;;;;2.43;1.93;;;10.70;99.90;;;;;;5028713;28;20185;-84
2022/09/18 06:34:30;;;;;;;1.53;1.53;;;10.70;99.90;;;;;;5020906;28;20200;-85
2022/09/18 06:36:56;;;;;;;2.00;1.90;;;10.70;99.90;;;;;;5009538;28;20544;-86
2022/09/18 06:39:22;;;;;;;1.80;1.70;;;10.80;99.90;;;;;;5010293;28;20745;-84
2022/09/18 06:41:48;;;;;;;2.80;2.00;;;10.80;99.90;;;;;;5010298;28;20680;-86
2022/09/18 06:44:14;;;;;;;2.00;1.90;;;10.90;99.90;;;;;;5010067;28;20178;-85
2022/09/18 06:46:40;;;;;;;2.83;1.90;;;10.90;99.90;;;;;;5010841;28;20657;-86
2022/09/18 06:49:05;;;;;;;1.50;1.50;;;10.90;99.90;;;;;;5010964;28;20258;-84
2022/09/18 06:51:31;;;;;;;1.93;1.50;;;10.90;99.90;;;;;;5011368;28;20617;-87
2022/09/18 06:53:57;;;;;;;1.73;1.50;;;10.90;99.90;;;;;;5009655;28;20188;-85
2022/09/18 06:56:23;;;;;;;1.70;1.60;;;10.90;99.90;;;;;;5009861;28;20190;-86
2022/09/18 06:58:52;;;;;;;3.37;1.53;;;11.00;99.90;;;;;;5008699;28;20234;-86
2022/09/18 07:01:18;;;;;;;2.20;2.10;;;11.10;99.90;;;;;;5008162;28;20215;-86
2022/09/18 07:03:47;;;;;;;2.00;1.90;;;11.20;99.90;;;;;;5009746;28;20665;-85
2022/09/18 07:06:13;;;;;;;1.77;1.67;;;11.30;99.90;;;;;;5010285;28;20266;-87
2022/09/18 07:08:39;;;;;;;3.47;1.70;;;11.30;99.90;;;;;;5012194;28;20254;-86
2022/09/18 07:11:05;;;;;;;1.83;1.60;;;11.40;99.90;;;;;;5010936;28;20200;-86
2022/09/18 07:13:32;;;;;;;2.13;1.70;;;11.30;99.90;;;;;;5010492;28;20180;-85
2022/09/18 07:15:58;;;;;;;2.03;1.80;;;11.30;99.90;;;;;;5008486;28;20250;-86
2022/09/18 07:18:25;;;;;;;3.00;1.73;;;11.30;99.90;;;;;;5010016;28;20185;-86
2022/09/18 07:20:52;;;;;;;2.67;1.60;;;11.40;99.90;;;;;;5013347;28;20789;-84
2022/09/18 07:23:18;;;;;;;1.63;1.53;;;11.30;99.90;;;;;;5013438;28;20171;-86
2022/09/18 07:25:44;;;;;;;1.97;1.83;;;11.30;99.90;;;;;;5009749;28;20541;-82
2022/09/18 07:28:10;;;;;;;2.37;1.50;;;11.30;99.90;;;;;;5010756;28;20185;-86
2022/09/18 07:30:37;;;;;;;1.83;1.70;;;11.40;99.90;;;;;;5012977;28;20212;-86
2022/09/18 07:33:04;;;;;;;1.80;1.80;;;11.50;99.90;;;;;;5011729;28;20180;-87
2022/09/18 07:35:31;;;;;;;1.77;1.67;;;11.50;99.90;;;;;;5013262;28;20176;-86
2022/09/18 07:38:02;;;;;;;3.03;1.90;;;11.50;99.90;;;;;;5012270;28;20203;-85
2022/09/18 07:40:28;;;;;;;3.80;1.97;;;11.60;99.90;;;;;;5012787;28;20293;-84
2022/09/18 07:43:05;;;;;;;2.07;1.97;;;11.60;99.90;;;;;;5012775;28;20217;-85
2022/09/18 07:45:31;;;;;;;1.80;1.70;;;11.60;99.90;;;;;;5012792;28;20686;-85
2022/09/18 07:48:04;;;;;;;2.07;1.97;;;11.70;99.90;;;;;;5011241;28;20180;-86
2022/09/18 07:50:31;;;;;;;1.93;1.83;;;11.80;99.90;;;;;;5013298;28;20168;-84
2022/09/18 07:52:59;;;;;;;1.70;1.70;;;11.90;99.90;;;;;;5013121;28;20249;-86
2022/09/18 07:55:25;;;;;;;1.70;1.60;;;12.10;99.90;;;;;;5012714;28;20205;-86
2022/09/18 07:58:00;;;;;;;3.30;1.90;;;12.30;99.90;;;;;;5014477;28;20184;-88
2022/09/18 08:00:29;;;;;;;2.37;1.63;;;12.40;99.90;;;;;;5014955;28;20349;-87
2022/09/18 08:03:08;;;;;;;2.30;1.80;;;12.50;99.90;;;;;;5017054;28;20171;-86
2022/09/18 08:05:34;;;;;;;1.60;1.50;;;12.50;99.90;;;;;;5017124;28;20162;-87
2022/09/18 08:08:08;;;;;;;2.50;1.60;;;12.60;99.90;;;;;;5031059;28;20174;-87
2022/09/18 08:10:35;;;;;;;1.87;1.50;;;12.70;99.90;;;;;;5031728;28;20173;-84
2022/09/18 08:13:02;;;;;;;1.43;1.37;;;12.60;99.90;;;;;;5017634;28;20178;-86
2022/09/18 08:15:29;;;;;;;1.30;1.20;;;12.70;99.90;;;;;;5013652;28;20275;-85
2022/09/18 08:17:55;;;;;;;1.43;1.40;;;12.80;99.90;;;;;;5013893;28;20552;-86
2022/09/18 08:20:21;;;;;;;1.83;1.77;;;12.90;99.90;;;;;;5015105;28;20217;-84
2022/09/18 08:22:47;;;;;;;1.50;1.40;;;13.00;99.90;;;;;;5019325;28;20199;-84
2022/09/18 08:25:13;;;;;;;1.73;1.50;;;13.10;99.90;;;;;;5017019;28;20173;-89
2022/09/18 08:27:40;;;;;;;1.43;1.33;;;13.30;99.90;;;;;;5014401;28;20174;-87
2022/09/18 08:30:08;;;;;;;2.10;1.20;;;13.50;99.90;;;;;;5014374;28;20184;-87
2022/09/18 08:32:35;;;;;;;2.80;2.60;;;13.50;99.90;;;;;;5015108;28;20229;-89
2022/09/18 08:35:02;;;;;;;1.77;1.67;;;13.40;99.90;;;;;;5016484;28;20177;-88
2022/09/18 08:37:29;;;;;;;1.83;1.60;;;13.40;99.90;;;;;;5020760;28;20624;-88
2022/09/18 08:39:55;;;;;;;1.57;1.57;;;13.40;99.90;;;;;;5013806;28;20234;-85
2022/09/18 08:42:29;;;;;;;1.40;1.30;;;13.50;99.90;;;;;;5012297;28;20192;-90
2022/09/18 08:45:05;;;;;;;1.97;1.20;;;13.60;99.90;;;;;;5013451;28;20203;-84
2022/09/18 08:47:39;;;;;;;2.97;1.10;;;13.60;99.90;;;;;;5014316;28;20223;-90
2022/09/18 08:50:26;;;;;;;2.00;1.00;;;13.60;99.90;;;;;;5013568;28;20232;-85
2022/09/18 08:53:02;;;;;;;1.93;1.10;;;13.70;99.90;;;;;;5012640;28;20167;-88
2022/09/18 08:55:40;;;;;;;1.00;1.00;;;13.90;99.60;;;;;;5005787;28;20173;-86
2022/09/18 08:58:12;;;;;;;1.10;1.10;;;14.10;99.00;;;;;;5011472;28;20547;-84
2022/09/18 09:00:43;;;;;;;1.00;0.90;;;14.20;98.10;;;;;;5011339;28;20209;-86
2022/09/18 09:03:24;;;;;;;1.20;0.80;;;14.30;97.60;;;;;;5012313;28;20157;-85
2022/09/18 09:06:00;;;;;;;1.37;0.60;;;14.40;96.70;;;;;;5010345;28;20184;-88
2022/09/18 09:08:57;;;;;;;1.60;0.70;;;14.70;96.20;;;;;;5012595;28;20183;-87
2022/09/18 09:11:58;;;;;;;1.30;1.30;;;14.90;95.50;;;;;;5010356;28;20177;-88
2022/09/18 09:14:43;;;;;;;1.10;1.10;;;15.10;96.00;;;;;;5011852;28;20255;-87
2022/09/18 09:17:36;;;;;;;0.80;0.80;;;15.50;95.30;;;;;;5011208;28;20169;-87
2022/09/18 09:20:26;;;;;;;0.73;0.73;;;15.80;93.80;;;;;;5011325;28;20169;-86
2022/09/18 09:23:01;;;;;;;0.50;0.50;;;16.00;93.40;;;;;;5009656;28;20182;-86
2022/09/18 09:25:48;;;;;;;0.30;0.30;;;16.20;91.80;;;;;;5011136;28;20181;-85
2022/09/18 09:28:17;;;;;;;0.60;0.30;;;16.30;90.50;;;;;;5011335;28;20479;-88
2022/09/18 09:30:48;;;;;;;0.20;0.20;;;16.40;90.30;;;;;;5015319;28;20297;-92
2022/09/18 09:33:34;;;;;;;0.30;0.30;;;16.60;90.70;;;;;;5015371;28;20180;-86
2022/09/18 09:36:15;;;;;;;0.40;0.40;;;16.60;89.10;;;;;;5015848;28;20157;-87
2022/09/18 09:38:58;;;;;;;0.30;0.30;;;16.60;89.20;;;;;;5011602;28;20572;-89
2022/09/18 09:41:35;;;;;;;0.30;0.30;;;16.70;87.20;;;;;;5010114;28;20493;-84
2022/09/18 09:44:29;;;;;;;0.50;0.50;;;16.60;87.00;;;;;;5010051;28;20157;-85
2022/09/18 09:47:29;;;;;;;0.50;0.50;;;16.60;86.80;;;;;;5009829;28;20164;-84
2022/09/18 09:50:32;;;;;;;0.53;0.53;;;16.50;89.60;;;;;;5033190;28;20196;-82
2022/09/18 09:53:03;;;;;;;0.57;0.53;;;16.60;86.80;;;;;;5021395;28;20169;-82
2022/09/18 09:55:52;;;;;;;0.30;0.30;;;16.70;86.50;;;;;;5010892;28;20733;-82
2022/09/18 09:58:35;;;;;;;0.50;0.50;;;16.80;86.60;;;;;;5010816;28;20202;-82
2022/09/18 10:01:41;;;;;;;1.43;0.47;;;16.90;85.90;;;;;;5010280;28;20564;-81
2022/09/18 10:04:22;;;;;;;0.60;0.60;;;17.00;88.60;;;;;;5007907;28;20185;-82
2022/09/18 10:06:48;;;;;;;0.60;0.60;;;17.00;87.40;;;;;;5010255;28;20188;-83
2022/09/18 10:09:42;;;;;;;0.70;0.70;;;17.00;87.00;;;;;;5010524;28;20186;-83
2022/09/18 10:12:32;;;;;;;0.40;0.40;;;17.00;86.20;;;;;;5011438;28;20177;-83
2022/09/18 10:15:22;;;;;;;0.60;0.60;;;17.10;85.70;;;;;;5011511;28;20623;-84
2022/09/18 10:17:51;;;;;;;0.60;0.60;;;17.20;85.60;;;;;;5010497;28;20165;-83
2022/09/18 10:20:22;;;;;;;0.63;0.57;;;17.20;85.50;;;;;;5010087;28;20864;-83
2022/09/18 10:22:48;;;;;;;0.50;0.50;;;17.20;85.10;;;;;;5008790;28;20185;-83
2022/09/18 10:25:40;;;;;;;0.37;0.37;;;17.30;85.60;;;;;;5009242;28;20187;-84
2022/09/18 10:28:13;;;;;;;0.33;0.33;;;17.40;86.60;;;;;;5010131;28;20227;-84
2022/09/18 10:30:59;;;;;;;0.43;0.43;;;17.50;85.20;;;;;;5008418;28;20210;-83
2022/09/18 10:33:33;;;;;;;0.30;0.30;;;17.60;83.80;;;;;;5008626;28;20269;-83
2022/09/18 10:36:20;;;;;;;0.30;0.30;;;17.70;83.40;;;;;;5008437;28;20600;-83
2022/09/18 10:38:46;;;;;;;0.30;0.30;;;17.80;84.50;;;;;;5010105;28;20219;-83
2022/09/18 10:41:14;;;;;;;0.30;0.30;;;17.80;84.80;;;;;;5008406;28;20209;-83
2022/09/18 10:43:53;;;;;;;0.30;0.30;;;17.90;85.80;;;;;;5009878;28;20709;-83
2022/09/18 10:46:31;;;;;;;0.40;0.40;;;18.00;86.70;;;;;;5008562;28;20208;-83
2022/09/18 10:49:00;;;;;;;0.50;0.50;;;18.00;85.20;;;;;;4999385;28;20279;-83
2022/09/18 10:51:28;;;;;;;0.50;0.50;;;18.10;86.40;;;;;;5006275;28;20224;-82
2022/09/18 10:54:14;;;;;;;0.47;0.47;;;18.00;85.30;;;;;;5005962;28;20287;-84
2022/09/18 10:56:40;;;;;;;0.53;0.53;;;18.20;88.40;;;;;;5010368;28;20229;-84
2022/09/18 10:59:33;;;;;;;0.60;0.60;;;18.40;89.10;;;;;;5010570;28;20279;-83
2022/09/18 11:02:03;;;;;;;0.73;0.73;;;18.40;89.50;;;;;;5011481;28;20371;-83
2022/09/18 11:04:30;;;;;;;0.40;0.40;;;18.50;90.10;;;;;;5010465;28;20169;-84
2022/09/18 11:07:01;;;;;;;1.27;0.70;;;18.50;87.70;;;;;;5008818;28;20231;-84
2022/09/18 11:09:38;;;;;;;0.50;0.50;;;18.50;86.20;;;;;;5009143;28;20174;-84
2022/09/18 11:12:04;;;;;;;0.47;0.47;;;18.50;84.70;;;;;;5010744;28;20165;-85
2022/09/18 11:14:39;;;;;;;0.50;0.50;;;18.40;84.80;;;;;;5011185;28;20174;-83
2022/09/18 11:17:06;;;;;;;0.53;0.53;;;18.30;82.70;;;;;;5007969;28;20165;-84
2022/09/18 11:19:37;;;;;;;0.77;0.60;;;18.20;81.00;;;;;;5009723;28;20180;-84
2022/09/18 11:22:05;;;;;;;0.50;0.50;;;18.10;82.90;;;;;;5008813;28;20220;-84
2022/09/18 11:24:37;;;;;;;0.47;0.47;;;17.90;82.70;;;;;;5010282;28;20177;-84
2022/09/18 11:27:20;;;;;;;0.33;0.33;;;17.80;82.70;;;;;;5008972;28;20507;-83
2022/09/18 11:29:46;;;;;;;0.30;0.30;;;17.80;81.30;;;;;;5016905;28;20176;-83
2022/09/18 11:32:25;;;;;;;0.50;0.50;;;17.70;81.40;;;;;;5027076;28;20248;-83
2022/09/18 11:34:56;;;;;;;0.67;0.67;;;17.50;80.80;;;;;;5012884;28;20606;-84
2022/09/18 11:37:35;;;;;;;0.70;0.70;;;17.40;82.80;;;;;;5010823;28;20176;-84
2022/09/18 11:40:07;;;;;;;0.60;0.60;;;17.40;82.10;;;;;;5008962;28;20261;-83
2022/09/18 11:42:42;;;;;;;1.03;1.03;;;17.40;82.90;;;;;;5007835;28;20184;-83
2022/09/18 11:45:33;;;;;;;0.50;0.50;;;17.60;82.60;;;;;;5010382;28;20430;-82
2022/09/18 11:48:30;;;;;;;1.40;0.53;;;17.60;81.60;;;;;;5024610;28;20185;-84
2022/09/18 11:51:03;;;;;;;0.97;0.63;;;17.60;83.40;;;;;;5022582;28;20183;-82
2022/09/18 11:53:37;;;;;;;0.40;0.40;;;17.70;85.00;;;;;;5004991;28;20192;-84
2022/09/18 11:56:03;;;;;;;0.60;0.60;;;17.60;82.60;;;;;;5023874;28;20165;-83
2022/09/18 11:58:35;;;;;;;0.60;0.60;;;17.70;82.90;;;;;;5018339;28;20212;-83
2022/09/18 12:01:25;;;;;;;0.70;0.70;;;17.80;84.40;;;;;;5010570;28;20618;-84
2022/09/18 12:04:06;;;;;;;1.70;1.60;;;18.00;83.10;;;;;;5010064;28;20170;-83
2022/09/18 12:07:10;;;;;;;0.60;0.60;;;18.20;85.30;;;;;;5009799;28;20219;-83
2022/09/18 12:09:51;;;;;;;0.70;0.70;;;18.40;86.80;;;;;;5007066;28;20220;-83
2022/09/18 12:12:36;;;;;;;1.03;0.50;;;18.50;85.90;;;;;;5007113;28;20590;-83
2022/09/18 12:15:22;;;;;;;0.67;0.57;;;18.60;84.80;;;;;;5010282;28;20161;-83
2022/09/18 12:18:00;;;;;;;0.57;0.57;;;18.70;89.30;;;;;;5009094;28;20601;-85
2022/09/18 12:20:34;;;;;;;0.60;0.60;;;18.70;87.10;;;;;;5009628;28;20207;-86
2022/09/18 12:23:01;;;;;;;0.70;0.70;;;18.70;87.60;;;;;;5010819;28;20169;-84
2022/09/18 12:25:56;;;;;;;0.60;0.60;;;18.50;85.70;;;;;;5011343;28;20173;-87
2022/09/18 12:28:34;;;;;;;0.70;0.70;;;18.50;86.90;;;;;;5008919;28;20224;-84
2022/09/18 12:31:06;;;;;;;1.07;0.53;;;18.40;88.40;;;;;;5007768;28;20177;-84
2022/09/18 12:33:50;;;;;;;0.47;0.47;;;18.20;87.10;;;;;;5009439;28;20173;-84
2022/09/18 12:38:43;;;;;;;0.50;0.50;;;18.10;90.60;;;;;;5104977;27;20274;-84
2022/09/18 12:41:50;;;;;;;0.73;0.73;;;18.10;89.40;;;;;;5104567;28;20170;-83
2022/09/18 12:44:31;;;;;;;0.67;0.67;;;18.10;86.40;;;;;;5096921;28;20204;-85
2022/09/18 12:47:13;;;;;;;0.83;0.60;;;18.20;88.50;;;;;;5103130;28;20189;-83
2022/09/18 12:49:53;;;;;;;0.37;0.37;;;18.10;87.20;;;;;;5101955;28;20539;-82
2022/09/18 12:52:39;;;;;;;0.40;0.40;;;18.10;86.50;;;;;;5104873;28;20225;-84
2022/09/18 12:55:07;;;;;;;1.33;0.50;;;18.00;90.60;;;;;;5105263;28;20177;-84
2022/09/18 12:57:51;;;;;;;0.63;0.63;;;18.10;91.40;;;;;;5106254;28;20672;-84
2022/09/18 13:00:18;;;;;;;0.80;0.80;;;18.00;88.70;;;;;;5105757;28;20240;-84
2022/09/18 13:02:51;;;;;;;1.33;0.97;;;17.90;92.30;;;;;;5095082;28;20196;-85
2022/09/18 13:05:40;;;;;;;0.77;0.77;;;17.90;92.50;;;;;;5105537;28;20158;-84
2022/09/18 13:08:29;;;;;;;1.00;0.80;;;17.80;91.80;;;;;;5106371;28;20166;-84
2022/09/18 13:11:30;;;;;;;0.77;0.77;;;17.70;90.40;;;;;;5113810;28;20182;-84
2022/09/18 13:14:12;;;;;;;2.10;0.93;;;17.70;91.20;;;;;;5119475;28;20261;-84
2022/09/18 13:16:41;;;;;;;0.70;0.70;;;17.70;91.10;;;;;;5110300;28;20190;-84
2022/09/18 13:19:20;;;;;;;1.03;0.70;;;17.80;91.40;;;;;;5105502;28;20185;-84
2022/09/18 13:21:49;;;;;;;0.63;0.63;;;17.90;91.50;;;;;;5105742;28;20162;-85